sensor_id;sensor_type;location;lat;lon;timestamp;P1;durP1;ratioP1;P2;durP2;ratioP2
8986;SDS011;4529;51.360;12.474;2023-11-22T00:00:34;6.87;;;4.83;;
8986;SDS011;4529;51.360;12.474;2023-11-22T00:05:38;6.40;;;4.43;;
8986;SDS011;4529;51.360;12.474;2023-11-22T00:10:41;7.43;;;4.60;;
8986;SDS011;4529;51.360;12.474;2023-11-22T00:15:45;4.93;;;3.83;;
8986;SDS011;4529;51.360;12.474;2023-11-22T00:20:49;5.27;;;3.93;;
8986;SDS011;4529;51.360;12.474;2023-11-22T00:25:52;4.77;;;4.17;;
8986;SDS011;4529;51.360;12.474;2023-11-22T00:30:55;5.80;;;4.00;;
8986;SDS011;4529;51.360;12.474;2023-11-22T00:36:00;6.53;;;4.10;;
8986;SDS011;4529;51.360;12.474;2023-11-22T00:41:04;4.80;;;4.23;;
8986;SDS011;4529;51.360;12.474;2023-11-22T00:46:08;4.93;;;4.20;;
8986;SDS011;4529;51.360;12.474;2023-11-22T00:51:11;4.47;;;3.63;;
8986;SDS011;4529;51.360;12.474;2023-11-22T00:56:15;5.77;;;4.07;;
8986;SDS011;4529;51.360;12.474;2023-11-22T01:01:19;5.47;;;3.87;;
8986;SDS011;4529;51.360;12.474;2023-11-22T01:06:22;6.93;;;4.27;;
8986;SDS011;4529;51.360;12.474;2023-11-22T01:11:26;4.63;;;3.97;;
8986;SDS011;4529;51.360;12.474;2023-11-22T01:16:31;4.33;;;3.93;;
8986;SDS011;4529;51.360;12.474;2023-11-22T01:21:34;6.63;;;4.23;;
8986;SDS011;4529;51.360;12.474;2023-11-22T01:26:37;6.97;;;4.67;;
8986;SDS011;4529;51.360;12.474;2023-11-22T01:31:41;5.73;;;4.40;;
8986;SDS011;4529;51.360;12.474;2023-11-22T01:36:45;6.43;;;4.40;;
8986;SDS011;4529;51.360;12.474;2023-11-22T01:41:49;7.40;;;4.63;;
8986;SDS011;4529;51.360;12.474;2023-11-22T01:46:53;5.57;;;4.50;;
8986;SDS011;4529;51.360;12.474;2023-11-22T01:51:57;6.90;;;4.47;;
8986;SDS011;4529;51.360;12.474;2023-11-22T01:57:01;5.57;;;4.30;;
8986;SDS011;4529;51.360;12.474;2023-11-22T02:02:05;6.97;;;4.87;;
8986;SDS011;4529;51.360;12.474;2023-11-22T02:07:08;8.07;;;4.43;;
8986;SDS011;4529;51.360;12.474;2023-11-22T02:12:12;6.60;;;4.43;;
8986;SDS011;4529;51.360;12.474;2023-11-22T02:17:16;7.03;;;4.77;;
8986;SDS011;4529;51.360;12.474;2023-11-22T02:22:20;6.80;;;4.67;;
8986;SDS011;4529;51.360;12.474;2023-11-22T02:27:24;6.80;;;4.30;;
8986;SDS011;4529;51.360;12.474;2023-11-22T02:32:27;7.13;;;4.47;;
8986;SDS011;4529;51.360;12.474;2023-11-22T02:37:31;7.17;;;4.50;;
8986;SDS011;4529;51.360;12.474;2023-11-22T02:42:34;6.20;;;4.10;;
8986;SDS011;4529;51.360;12.474;2023-11-22T02:47:37;5.20;;;4.03;;
8986;SDS011;4529;51.360;12.474;2023-11-22T02:52:42;6.17;;;4.30;;
8986;SDS011;4529;51.360;12.474;2023-11-22T02:57:45;6.60;;;4.53;;
8986;SDS011;4529;51.360;12.474;2023-11-22T03:02:48;6.80;;;4.40;;
8986;SDS011;4529;51.360;12.474;2023-11-22T03:07:52;5.73;;;3.83;;
8986;SDS011;4529;51.360;12.474;2023-11-22T03:12:56;8.83;;;4.57;;
8986;SDS011;4529;51.360;12.474;2023-11-22T03:18:00;6.03;;;3.80;;
8986;SDS011;4529;51.360;12.474;2023-11-22T03:23:04;6.57;;;4.27;;
8986;SDS011;4529;51.360;12.474;2023-11-22T03:28:08;6.47;;;4.00;;
8986;SDS011;4529;51.360;12.474;2023-11-22T03:33:12;7.30;;;4.53;;
8986;SDS011;4529;51.360;12.474;2023-11-22T03:38:15;5.00;;;3.73;;
8986;SDS011;4529;51.360;12.474;2023-11-22T03:43:19;6.63;;;4.37;;
8986;SDS011;4529;51.360;12.474;2023-11-22T03:48:23;6.30;;;4.13;;
8986;SDS011;4529;51.360;12.474;2023-11-22T03:53:27;7.57;;;4.10;;
8986;SDS011;4529;51.360;12.474;2023-11-22T03:58:30;7.10;;;4.40;;
8986;SDS011;4529;51.360;12.474;2023-11-22T04:03:34;6.90;;;4.13;;
8986;SDS011;4529;51.360;12.474;2023-11-22T04:08:37;6.53;;;4.40;;
8986;SDS011;4529;51.360;12.474;2023-11-22T04:13:41;6.67;;;4.37;;
8986;SDS011;4529;51.360;12.474;2023-11-22T04:18:44;6.30;;;4.10;;
8986;SDS011;4529;51.360;12.474;2023-11-22T04:23:48;5.33;;;3.93;;
8986;SDS011;4529;51.360;12.474;2023-11-22T04:28:53;6.73;;;4.30;;
8986;SDS011;4529;51.360;12.474;2023-11-22T04:33:57;5.30;;;4.03;;
8986;SDS011;4529;51.360;12.474;2023-11-22T04:39:00;7.50;;;4.10;;
8986;SDS011;4529;51.360;12.474;2023-11-22T04:44:04;8.13;;;4.43;;
8986;SDS011;4529;51.360;12.474;2023-11-22T04:49:08;7.33;;;4.50;;
8986;SDS011;4529;51.360;12.474;2023-11-22T04:54:12;5.83;;;4.03;;
8986;SDS011;4529;51.360;12.474;2023-11-22T04:59:15;6.63;;;4.13;;
8986;SDS011;4529;51.360;12.474;2023-11-22T05:04:19;6.00;;;3.60;;
8986;SDS011;4529;51.360;12.474;2023-11-22T05:09:23;5.67;;;3.93;;
8986;SDS011;4529;51.360;12.474;2023-11-22T05:14:27;4.93;;;3.87;;
8986;SDS011;4529;51.360;12.474;2023-11-22T05:19:31;7.17;;;4.83;;
8986;SDS011;4529;51.360;12.474;2023-11-22T05:24:35;7.57;;;4.50;;
8986;SDS011;4529;51.360;12.474;2023-11-22T05:29:39;7.57;;;3.97;;
8986;SDS011;4529;51.360;12.474;2023-11-22T05:34:42;5.20;;;3.90;;
8986;SDS011;4529;51.360;12.474;2023-11-22T05:39:46;4.97;;;4.10;;
8986;SDS011;4529;51.360;12.474;2023-11-22T05:44:50;6.10;;;4.50;;
8986;SDS011;4529;51.360;12.474;2023-11-22T05:49:54;6.17;;;4.03;;
8986;SDS011;4529;51.360;12.474;2023-11-22T05:54:58;7.07;;;4.40;;
8986;SDS011;4529;51.360;12.474;2023-11-22T06:00:02;6.83;;;4.57;;
8986;SDS011;4529;51.360;12.474;2023-11-22T06:05:05;7.57;;;4.50;;
8986;SDS011;4529;51.360;12.474;2023-11-22T06:10:09;6.20;;;4.70;;
8986;SDS011;4529;51.360;12.474;2023-11-22T06:15:13;7.13;;;5.03;;
8986;SDS011;4529;51.360;12.474;2023-11-22T06:20:17;7.97;;;4.77;;
8986;SDS011;4529;51.360;12.474;2023-11-22T06:25:20;6.27;;;4.70;;
8986;SDS011;4529;51.360;12.474;2023-11-22T06:30:24;5.87;;;4.23;;
8986;SDS011;4529;51.360;12.474;2023-11-22T06:35:28;5.23;;;3.70;;
8986;SDS011;4529;51.360;12.474;2023-11-22T06:40:32;7.10;;;4.20;;
8986;SDS011;4529;51.360;12.474;2023-11-22T06:45:36;7.63;;;4.97;;
8986;SDS011;4529;51.360;12.474;2023-11-22T06:50:40;6.93;;;4.50;;
8986;SDS011;4529;51.360;12.474;2023-11-22T06:55:44;7.17;;;5.13;;
8986;SDS011;4529;51.360;12.474;2023-11-22T07:00:48;6.37;;;4.87;;
8986;SDS011;4529;51.360;12.474;2023-11-22T07:05:52;7.30;;;5.03;;
8986;SDS011;4529;51.360;12.474;2023-11-22T07:10:57;7.83;;;5.27;;
8986;SDS011;4529;51.360;12.474;2023-11-22T07:16:00;7.13;;;4.80;;
8986;SDS011;4529;51.360;12.474;2023-11-22T07:21:04;7.87;;;5.63;;
8986;SDS011;4529;51.360;12.474;2023-11-22T07:26:07;8.87;;;5.47;;
8986;SDS011;4529;51.360;12.474;2023-11-22T07:31:10;10.27;;;5.83;;
8986;SDS011;4529;51.360;12.474;2023-11-22T07:36:14;9.57;;;6.27;;
8986;SDS011;4529;51.360;12.474;2023-11-22T07:41:17;8.73;;;5.83;;
8986;SDS011;4529;51.360;12.474;2023-11-22T07:46:22;8.10;;;5.67;;
8986;SDS011;4529;51.360;12.474;2023-11-22T07:51:26;9.03;;;5.50;;
8986;SDS011;4529;51.360;12.474;2023-11-22T07:56:29;9.13;;;5.77;;
8986;SDS011;4529;51.360;12.474;2023-11-22T08:01:34;9.10;;;5.77;;
8986;SDS011;4529;51.360;12.474;2023-11-22T08:06:38;7.90;;;5.60;;
8986;SDS011;4529;51.360;12.474;2023-11-22T08:11:41;8.07;;;5.63;;
8986;SDS011;4529;51.360;12.474;2023-11-22T08:16:46;8.83;;;5.80;;
8986;SDS011;4529;51.360;12.474;2023-11-22T08:21:50;8.27;;;6.17;;
8986;SDS011;4529;51.360;12.474;2023-11-22T08:26:54;8.20;;;5.70;;
8986;SDS011;4529;51.360;12.474;2023-11-22T08:31:58;3.57;;;2.63;;
8986;SDS011;4529;51.360;12.474;2023-11-22T08:37:02;4.83;;;2.60;;
8986;SDS011;4529;51.360;12.474;2023-11-22T08:42:05;2.97;;;2.17;;
8986;SDS011;4529;51.360;12.474;2023-11-22T08:47:09;3.13;;;2.33;;
8986;SDS011;4529;51.360;12.474;2023-11-22T08:52:12;2.90;;;2.60;;
8986;SDS011;4529;51.360;12.474;2023-11-22T08:57:16;3.43;;;2.50;;
8986;SDS011;4529;51.360;12.474;2023-11-22T09:02:20;10.50;;;7.03;;
8986;SDS011;4529;51.360;12.474;2023-11-22T09:07:24;11.50;;;7.23;;
8986;SDS011;4529;51.360;12.474;2023-11-22T09:12:28;9.83;;;7.77;;
8986;SDS011;4529;51.360;12.474;2023-11-22T09:17:32;10.77;;;7.07;;
8986;SDS011;4529;51.360;12.474;2023-11-22T09:22:41;11.40;;;7.57;;
8986;SDS011;4529;51.360;12.474;2023-11-22T09:27:46;10.87;;;7.53;;
8986;SDS011;4529;51.360;12.474;2023-11-22T09:32:49;10.40;;;7.60;;
8986;SDS011;4529;51.360;12.474;2023-11-22T09:37:53;9.90;;;7.37;;
8986;SDS011;4529;51.360;12.474;2023-11-22T09:42:58;11.70;;;7.53;;
8986;SDS011;4529;51.360;12.474;2023-11-22T09:48:02;9.47;;;7.30;;
8986;SDS011;4529;51.360;12.474;2023-11-22T09:53:05;10.20;;;7.83;;
8986;SDS011;4529;51.360;12.474;2023-11-22T09:58:07;11.43;;;7.70;;
8986;SDS011;4529;51.360;12.474;2023-11-22T10:03:11;11.33;;;8.10;;
8986;SDS011;4529;51.360;12.474;2023-11-22T10:08:14;10.43;;;7.10;;
8986;SDS011;4529;51.360;12.474;2023-11-22T10:13:19;9.73;;;7.07;;
8986;SDS011;4529;51.360;12.474;2023-11-22T10:18:23;10.30;;;6.77;;
8986;SDS011;4529;51.360;12.474;2023-11-22T10:23:27;10.20;;;7.00;;
8986;SDS011;4529;51.360;12.474;2023-11-22T10:28:31;11.60;;;7.17;;
8986;SDS011;4529;51.360;12.474;2023-11-22T10:33:41;9.83;;;6.90;;
8986;SDS011;4529;51.360;12.474;2023-11-22T10:38:48;9.30;;;6.73;;
8986;SDS011;4529;51.360;12.474;2023-11-22T10:43:51;9.67;;;6.67;;
8986;SDS011;4529;51.360;12.474;2023-11-22T10:48:55;10.57;;;6.83;;
8986;SDS011;4529;51.360;12.474;2023-11-22T10:54:00;13.33;;;6.60;;
8986;SDS011;4529;51.360;12.474;2023-11-22T10:59:04;11.60;;;7.47;;
8986;SDS011;4529;51.360;12.474;2023-11-22T11:04:11;10.10;;;7.00;;
8986;SDS011;4529;51.360;12.474;2023-11-22T11:09:13;10.73;;;7.00;;
8986;SDS011;4529;51.360;12.474;2023-11-22T11:14:17;11.77;;;7.10;;
8986;SDS011;4529;51.360;12.474;2023-11-22T11:19:21;11.00;;;7.10;;
8986;SDS011;4529;51.360;12.474;2023-11-22T11:24:25;11.67;;;7.30;;
8986;SDS011;4529;51.360;12.474;2023-11-22T11:29:31;10.10;;;7.40;;
8986;SDS011;4529;51.360;12.474;2023-11-22T11:34:45;10.97;;;7.27;;
8986;SDS011;4529;51.360;12.474;2023-11-22T11:39:50;9.63;;;7.20;;
8986;SDS011;4529;51.360;12.474;2023-11-22T11:50:07;11.93;;;7.40;;
8986;SDS011;4529;51.360;12.474;2023-11-22T11:55:11;11.00;;;7.00;;
8986;SDS011;4529;51.360;12.474;2023-11-22T12:00:15;9.93;;;7.17;;
8986;SDS011;4529;51.360;12.474;2023-11-22T12:05:19;10.33;;;7.30;;
8986;SDS011;4529;51.360;12.474;2023-11-22T12:10:22;9.60;;;6.80;;
8986;SDS011;4529;51.360;12.474;2023-11-22T12:15:25;9.43;;;7.00;;
8986;SDS011;4529;51.360;12.474;2023-11-22T12:20:29;10.47;;;7.23;;
8986;SDS011;4529;51.360;12.474;2023-11-22T12:25:34;11.83;;;7.77;;
8986;SDS011;4529;51.360;12.474;2023-11-22T12:30:38;8.80;;;6.57;;
8986;SDS011;4529;51.360;12.474;2023-11-22T12:35:42;8.83;;;7.00;;
8986;SDS011;4529;51.360;12.474;2023-11-22T12:40:46;9.70;;;6.70;;
8986;SDS011;4529;51.360;12.474;2023-11-22T12:45:57;9.73;;;6.50;;
8986;SDS011;4529;51.360;12.474;2023-11-22T12:50:53;9.97;;;7.03;;
8986;SDS011;4529;51.360;12.474;2023-11-22T12:55:56;10.77;;;7.10;;
8986;SDS011;4529;51.360;12.474;2023-11-22T13:01:00;10.07;;;6.83;;
8986;SDS011;4529;51.360;12.474;2023-11-22T13:06:05;9.40;;;6.80;;
8986;SDS011;4529;51.360;12.474;2023-11-22T13:11:09;11.57;;;7.53;;
8986;SDS011;4529;51.360;12.474;2023-11-22T13:16:13;9.83;;;6.87;;
8986;SDS011;4529;51.360;12.474;2023-11-22T13:21:16;10.37;;;7.50;;
8986;SDS011;4529;51.360;12.474;2023-11-22T13:26:20;12.03;;;8.00;;
8986;SDS011;4529;51.360;12.474;2023-11-22T13:31:23;10.77;;;7.77;;
8986;SDS011;4529;51.360;12.474;2023-11-22T13:36:27;11.17;;;8.63;;
8986;SDS011;4529;51.360;12.474;2023-11-22T13:41:30;11.17;;;7.80;;
8986;SDS011;4529;51.360;12.474;2023-11-22T13:46:34;11.40;;;8.00;;
8986;SDS011;4529;51.360;12.474;2023-11-22T13:51:38;9.97;;;7.57;;
8986;SDS011;4529;51.360;12.474;2023-11-22T13:56:43;11.73;;;7.57;;
8986;SDS011;4529;51.360;12.474;2023-11-22T14:01:46;10.40;;;8.13;;
8986;SDS011;4529;51.360;12.474;2023-11-22T14:06:49;11.33;;;7.77;;
8986;SDS011;4529;51.360;12.474;2023-11-22T14:11:53;10.53;;;7.67;;
8986;SDS011;4529;51.360;12.474;2023-11-22T14:16:56;10.57;;;7.70;;
8986;SDS011;4529;51.360;12.474;2023-11-22T14:22:00;9.97;;;7.27;;
8986;SDS011;4529;51.360;12.474;2023-11-22T14:27:04;13.80;;;8.97;;
8986;SDS011;4529;51.360;12.474;2023-11-22T14:32:08;13.67;;;8.90;;
8986;SDS011;4529;51.360;12.474;2023-11-22T14:37:12;8.47;;;7.20;;
8986;SDS011;4529;51.360;12.474;2023-11-22T14:42:15;10.57;;;7.60;;
8986;SDS011;4529;51.360;12.474;2023-11-22T14:47:19;9.27;;;7.57;;
8986;SDS011;4529;51.360;12.474;2023-11-22T14:52:24;9.47;;;7.37;;
8986;SDS011;4529;51.360;12.474;2023-11-22T14:57:28;8.67;;;7.23;;
8986;SDS011;4529;51.360;12.474;2023-11-22T15:02:32;10.10;;;7.53;;
8986;SDS011;4529;51.360;12.474;2023-11-22T15:07:36;10.53;;;7.43;;
8986;SDS011;4529;51.360;12.474;2023-11-22T15:12:40;9.83;;;7.73;;
8986;SDS011;4529;51.360;12.474;2023-11-22T15:17:44;9.07;;;7.33;;
8986;SDS011;4529;51.360;12.474;2023-11-22T15:22:48;11.37;;;7.53;;
8986;SDS011;4529;51.360;12.474;2023-11-22T15:27:51;9.00;;;7.47;;
8986;SDS011;4529;51.360;12.474;2023-11-22T15:32:55;9.77;;;7.53;;
8986;SDS011;4529;51.360;12.474;2023-11-22T15:37:59;10.27;;;8.03;;
8986;SDS011;4529;51.360;12.474;2023-11-22T15:43:03;9.43;;;7.40;;
8986;SDS011;4529;51.360;12.474;2023-11-22T15:48:07;10.80;;;7.50;;
8986;SDS011;4529;51.360;12.474;2023-11-22T15:53:10;10.27;;;7.63;;
8986;SDS011;4529;51.360;12.474;2023-11-22T15:58:14;11.37;;;7.73;;
8986;SDS011;4529;51.360;12.474;2023-11-22T16:03:17;9.97;;;7.93;;
8986;SDS011;4529;51.360;12.474;2023-11-22T16:08:21;15.30;;;10.13;;
8986;SDS011;4529;51.360;12.474;2023-11-22T16:13:25;12.60;;;9.50;;
8986;SDS011;4529;51.360;12.474;2023-11-22T16:18:29;13.03;;;9.60;;
8986;SDS011;4529;51.360;12.474;2023-11-22T16:23:34;15.27;;;10.67;;
8986;SDS011;4529;51.360;12.474;2023-11-22T16:28:38;16.03;;;11.13;;
8986;SDS011;4529;51.360;12.474;2023-11-22T16:33:42;16.87;;;11.43;;
8986;SDS011;4529;51.360;12.474;2023-11-22T16:38:46;14.37;;;10.10;;
8986;SDS011;4529;51.360;12.474;2023-11-22T16:43:50;14.40;;;10.60;;
8986;SDS011;4529;51.360;12.474;2023-11-22T16:48:54;11.13;;;8.90;;
8986;SDS011;4529;51.360;12.474;2023-11-22T16:53:58;14.17;;;9.30;;
8986;SDS011;4529;51.360;12.474;2023-11-22T16:59:02;11.10;;;8.63;;
8986;SDS011;4529;51.360;12.474;2023-11-22T17:04:06;11.03;;;8.40;;
8986;SDS011;4529;51.360;12.474;2023-11-22T17:09:09;10.70;;;8.50;;
8986;SDS011;4529;51.360;12.474;2023-11-22T17:14:13;9.20;;;7.87;;
8986;SDS011;4529;51.360;12.474;2023-11-22T17:19:17;9.07;;;7.80;;
8986;SDS011;4529;51.360;12.474;2023-11-22T17:24:20;9.43;;;8.00;;
8986;SDS011;4529;51.360;12.474;2023-11-22T17:29:24;9.83;;;7.83;;
8986;SDS011;4529;51.360;12.474;2023-11-22T17:34:28;10.77;;;8.20;;
8986;SDS011;4529;51.360;12.474;2023-11-22T17:39:32;9.97;;;7.97;;
8986;SDS011;4529;51.360;12.474;2023-11-22T17:44:37;9.80;;;7.60;;
8986;SDS011;4529;51.360;12.474;2023-11-22T17:49:40;10.13;;;7.90;;
8986;SDS011;4529;51.360;12.474;2023-11-22T17:54:44;11.07;;;7.93;;
8986;SDS011;4529;51.360;12.474;2023-11-22T17:59:48;10.27;;;7.47;;
8986;SDS011;4529;51.360;12.474;2023-11-22T18:04:52;10.73;;;8.37;;
8986;SDS011;4529;51.360;12.474;2023-11-22T18:09:56;9.47;;;7.93;;
8986;SDS011;4529;51.360;12.474;2023-11-22T18:14:59;11.40;;;8.20;;
8986;SDS011;4529;51.360;12.474;2023-11-22T18:20:04;10.17;;;8.00;;
8986;SDS011;4529;51.360;12.474;2023-11-22T18:25:07;11.47;;;8.27;;
8986;SDS011;4529;51.360;12.474;2023-11-22T18:30:12;12.17;;;8.73;;
8986;SDS011;4529;51.360;12.474;2023-11-22T18:35:18;8.57;;;7.07;;
8986;SDS011;4529;51.360;12.474;2023-11-22T18:40:22;9.63;;;7.90;;
8986;SDS011;4529;51.360;12.474;2023-11-22T18:45:26;8.83;;;7.43;;
8986;SDS011;4529;51.360;12.474;2023-11-22T18:50:30;10.00;;;7.30;;
8986;SDS011;4529;51.360;12.474;2023-11-22T18:55:34;8.33;;;6.93;;
8986;SDS011;4529;51.360;12.474;2023-11-22T19:00:37;11.17;;;7.37;;
8986;SDS011;4529;51.360;12.474;2023-11-22T19:05:41;9.57;;;7.00;;
8986;SDS011;4529;51.360;12.474;2023-11-22T19:10:46;9.07;;;6.90;;
8986;SDS011;4529;51.360;12.474;2023-11-22T19:15:50;9.03;;;7.00;;
8986;SDS011;4529;51.360;12.474;2023-11-22T19:20:53;9.97;;;7.47;;
8986;SDS011;4529;51.360;12.474;2023-11-22T19:25:57;9.43;;;7.37;;
8986;SDS011;4529;51.360;12.474;2023-11-22T19:31:00;9.80;;;7.20;;
8986;SDS011;4529;51.360;12.474;2023-11-22T19:36:04;10.83;;;7.53;;
8986;SDS011;4529;51.360;12.474;2023-11-22T19:41:08;9.30;;;7.60;;
8986;SDS011;4529;51.360;12.474;2023-11-22T19:46:11;11.63;;;7.87;;
8986;SDS011;4529;51.360;12.474;2023-11-22T19:51:15;10.03;;;7.40;;
8986;SDS011;4529;51.360;12.474;2023-11-22T19:56:18;9.87;;;7.60;;
8986;SDS011;4529;51.360;12.474;2023-11-22T20:01:22;10.30;;;7.40;;
8986;SDS011;4529;51.360;12.474;2023-11-22T20:06:26;11.33;;;7.50;;
8986;SDS011;4529;51.360;12.474;2023-11-22T20:11:30;9.00;;;6.63;;
8986;SDS011;4529;51.360;12.474;2023-11-22T20:16:34;9.63;;;7.70;;
8986;SDS011;4529;51.360;12.474;2023-11-22T20:21:38;9.80;;;7.60;;
8986;SDS011;4529;51.360;12.474;2023-11-22T20:26:44;8.97;;;7.17;;
8986;SDS011;4529;51.360;12.474;2023-11-22T20:31:48;11.90;;;7.27;;
8986;SDS011;4529;51.360;12.474;2023-11-22T20:36:53;11.47;;;7.67;;
8986;SDS011;4529;51.360;12.474;2023-11-22T20:41:57;9.23;;;7.40;;
8986;SDS011;4529;51.360;12.474;2023-11-22T20:47:00;10.83;;;7.10;;
8986;SDS011;4529;51.360;12.474;2023-11-22T20:52:04;9.13;;;6.97;;
8986;SDS011;4529;51.360;12.474;2023-11-22T20:57:07;8.37;;;6.77;;
8986;SDS011;4529;51.360;12.474;2023-11-22T21:02:11;8.47;;;6.90;;
8986;SDS011;4529;51.360;12.474;2023-11-22T21:07:15;8.80;;;7.37;;
8986;SDS011;4529;51.360;12.474;2023-11-22T21:12:19;9.43;;;6.97;;
8986;SDS011;4529;51.360;12.474;2023-11-22T21:17:24;10.33;;;6.67;;
8986;SDS011;4529;51.360;12.474;2023-11-22T21:22:27;8.77;;;6.43;;
8986;SDS011;4529;51.360;12.474;2023-11-22T21:27:30;7.93;;;6.23;;
8986;SDS011;4529;51.360;12.474;2023-11-22T21:32:34;8.40;;;6.73;;
8986;SDS011;4529;51.360;12.474;2023-11-22T21:37:38;8.20;;;6.27;;
8986;SDS011;4529;51.360;12.474;2023-11-22T21:42:42;8.37;;;6.13;;
8986;SDS011;4529;51.360;12.474;2023-11-22T21:47:46;8.83;;;6.07;;
8986;SDS011;4529;51.360;12.474;2023-11-22T21:52:50;7.27;;;5.90;;
8986;SDS011;4529;51.360;12.474;2023-11-22T21:57:55;7.57;;;5.87;;
8986;SDS011;4529;51.360;12.474;2023-11-22T22:02:58;7.93;;;6.07;;
8986;SDS011;4529;51.360;12.474;2023-11-22T22:08:01;7.40;;;6.00;;
8986;SDS011;4529;51.360;12.474;2023-11-22T22:13:05;6.70;;;5.50;;
8986;SDS011;4529;51.360;12.474;2023-11-22T22:18:09;7.53;;;5.60;;
8986;SDS011;4529;51.360;12.474;2023-11-22T22:23:13;7.77;;;5.37;;
8986;SDS011;4529;51.360;12.474;2023-11-22T22:28:17;7.13;;;5.57;;
8986;SDS011;4529;51.360;12.474;2023-11-22T22:33:21;6.97;;;5.17;;
8986;SDS011;4529;51.360;12.474;2023-11-22T22:38:24;8.27;;;5.30;;
8986;SDS011;4529;51.360;12.474;2023-11-22T22:43:28;8.77;;;5.60;;
8986;SDS011;4529;51.360;12.474;2023-11-22T22:48:32;6.30;;;4.97;;
8986;SDS011;4529;51.360;12.474;2023-11-22T22:53:36;6.20;;;5.10;;
8986;SDS011;4529;51.360;12.474;2023-11-22T22:58:40;5.30;;;4.80;;
8986;SDS011;4529;51.360;12.474;2023-11-22T23:03:44;6.67;;;4.80;;
8986;SDS011;4529;51.360;12.474;2023-11-22T23:08:48;7.30;;;5.00;;
8986;SDS011;4529;51.360;12.474;2023-11-22T23:13:51;6.13;;;4.73;;
8986;SDS011;4529;51.360;12.474;2023-11-22T23:18:55;5.77;;;4.33;;
8986;SDS011;4529;51.360;12.474;2023-11-22T23:23:58;7.47;;;4.93;;
8986;SDS011;4529;51.360;12.474;2023-11-22T23:29:01;5.50;;;4.90;;
8986;SDS011;4529;51.360;12.474;2023-11-22T23:34:06;7.20;;;5.13;;
8986;SDS011;4529;51.360;12.474;2023-11-22T23:39:09;7.93;;;5.03;;
8986;SDS011;4529;51.360;12.474;2023-11-22T23:44:12;6.33;;;5.07;;
8986;SDS011;4529;51.360;12.474;2023-11-22T23:49:16;5.60;;;4.67;;
8986;SDS011;4529;51.360;12.474;2023-11-22T23:54:19;6.40;;;4.90;;
8986;SDS011;4529;51.360;12.474;2023-11-22T23:59:23;5.07;;;4.50;;
